createdAt,value
2023-03-19T00:01:07.220Z,99587.59
2023-03-19T00:03:36.810Z,99592.78
2023-03-19T00:06:05.509Z,99585.84
2023-03-19T00:08:33.918Z,99586.75
2023-03-19T00:11:10.417Z,99582.38
2023-03-19T00:13:38.837Z,99581.50
2023-03-19T00:16:08.472Z,99585.84
2023-03-19T00:18:37.398Z,99583.25
2023-03-19T00:21:06.573Z,99583.25
2023-03-19T00:23:36.605Z,99579.72
2023-03-19T00:26:05.363Z,99573.59
2023-03-19T00:28:37.275Z,99568.38
2023-03-19T00:31:11.638Z,99580.56
2023-03-19T00:33:40.964Z,99570.09
2023-03-19T00:36:11.142Z,99564.84
2023-03-19T00:38:40.539Z,99570.81
2023-03-19T00:41:09.164Z,99571.59
2023-03-19T00:43:39.164Z,99570.66
2023-03-19T00:46:08.344Z,99576.66
2023-03-19T00:48:36.787Z,99574.94
2023-03-19T00:51:06.155Z,99578.38
2023-03-19T00:53:35.365Z,99584.41
2023-03-19T00:56:05.656Z,99590.44
2023-03-19T00:58:34.312Z,99582.66
2023-03-19T01:01:04.381Z,99587.91
2023-03-19T01:03:33.365Z,99594.81
2023-03-19T01:06:01.893Z,99591.38
2023-03-19T01:08:31.028Z,99586.19
2023-03-19T01:11:07.752Z,99591.38
2023-03-19T01:13:36.840Z,99593.09
2023-03-19T01:16:07.681Z,99590.50
2023-03-19T01:18:36.243Z,99576.63
2023-03-19T01:21:05.296Z,99574.84
2023-03-19T01:23:35.489Z,99575.72
2023-03-19T01:26:03.908Z,99581.75
2023-03-19T01:28:33.615Z,99573.84
2023-03-19T01:31:02.961Z,99572.06
2023-03-19T01:33:53.798Z,99576.44
2023-03-19T01:36:35.710Z,99572.91
2023-03-19T01:39:06.576Z,99572.00
2023-03-19T01:41:35.362Z,99577.22
2023-03-19T01:44:30.667Z,99579.81
2023-03-19T01:47:31.670Z,99579.75
2023-03-19T01:50:27.327Z,99576.19
2023-03-19T01:53:19.455Z,99570.91
2023-03-19T01:55:56.824Z,99570.91
2023-03-19T01:58:42.376Z,99574.25
2023-03-19T02:01:21.867Z,99578.63
2023-03-19T02:03:54.982Z,99570.72
2023-03-19T02:06:31.780Z,99566.38
2023-03-19T02:09:02.129Z,99573.31
2023-03-19T02:11:56.899Z,99566.22
2023-03-19T02:14:25.684Z,99570.59
2023-03-19T02:16:56.160Z,99573.13
2023-03-19T02:19:38.469Z,99572.25
2023-03-19T02:22:09.980Z,99565.28
2023-03-19T02:24:46.675Z,99560.03
2023-03-19T02:27:21.860Z,99559.13
2023-03-19T02:29:52.324Z,99553.81
2023-03-19T02:32:22.768Z,99552.94
2023-03-19T02:34:51.620Z,99554.63
2023-03-19T02:37:26.172Z,99556.28
2023-03-19T02:39:59.569Z,99558.00
2023-03-19T02:42:30.702Z,99558.81
2023-03-19T02:44:59.760Z,99564.84
2023-03-19T02:47:28.796Z,99563.97
2023-03-19T02:49:57.313Z,99549.16
2023-03-19T02:52:28.009Z,99557.78
2023-03-19T02:54:56.880Z,99556.03
2023-03-19T02:57:26.353Z,99557.75
2023-03-19T02:59:56.504Z,99560.34
2023-03-19T03:02:24.993Z,99558.59
2023-03-19T03:04:53.380Z,99561.09
2023-03-19T03:07:22.173Z,99561.09
2023-03-19T03:09:51.011Z,99566.28
2023-03-19T03:12:19.781Z,99560.31
2023-03-19T03:14:48.128Z,99554.13
2023-03-19T03:17:19.164Z,99566.28
2023-03-19T03:19:48.047Z,99564.53
2023-03-19T03:22:16.550Z,99563.63
2023-03-19T03:24:45.036Z,99560.13
2023-03-19T03:27:13.722Z,99562.78
2023-03-19T03:29:42.494Z,99562.75
2023-03-19T03:32:11.541Z,99559.25
2023-03-19T03:34:42.167Z,99566.22
2023-03-19T03:37:10.694Z,99556.66
2023-03-19T03:39:39.075Z,99563.56
2023-03-19T03:42:08.200Z,99561.81
2023-03-19T03:44:37.854Z,99573.13
2023-03-19T03:47:06.917Z,99575.72
2023-03-19T03:49:35.344Z,99579.22
2023-03-19T03:52:05.673Z,99574.84
2023-03-19T03:54:35.468Z,99566.09
2023-03-19T03:57:03.892Z,99568.72
2023-03-19T03:59:32.825Z,99561.72
2023-03-19T04:02:01.503Z,99573.84
2023-03-19T04:04:31.044Z,99573.00
2023-03-19T04:06:59.540Z,99568.66
2023-03-19T04:09:43.069Z,99575.59
2023-03-19T04:12:12.712Z,99566.03
2023-03-19T04:14:41.628Z,99570.41
2023-03-19T04:17:10.209Z,99573.91
2023-03-19T04:19:39.712Z,99571.31
2023-03-19T04:22:09.038Z,99582.59
2023-03-19T04:24:37.490Z,99579.16
2023-03-19T04:27:08.709Z,99583.47
2023-03-19T04:29:38.800Z,99586.06
2023-03-19T04:32:08.472Z,99581.69
2023-03-19T04:34:37.658Z,99584.28
2023-03-19T04:37:06.549Z,99585.13
2023-03-19T04:39:39.749Z,99595.53
2023-03-19T04:42:09.845Z,99598.09
2023-03-19T04:44:44.991Z,99595.44
2023-03-19T04:47:14.711Z,99601.41
2023-03-19T04:49:51.791Z,99597.09
2023-03-19T04:52:21.556Z,99606.63
2023-03-19T04:54:51.487Z,99604.88
2023-03-19T04:57:21.509Z,99608.31
2023-03-19T04:59:51.440Z,99609.13
2023-03-19T05:02:22.339Z,99610.84
2023-03-19T05:04:51.947Z,99614.28
2023-03-19T05:07:20.371Z,99615.97
2023-03-19T05:09:50.081Z,99615.09
2023-03-19T05:12:21.018Z,99619.47
2023-03-19T05:14:52.395Z,99620.28
2023-03-19T05:17:23.695Z,99620.28
2023-03-19T05:20:02.518Z,99615.09
2023-03-19T05:22:34.263Z,99622.91
2023-03-19T05:25:02.713Z,99616.88
2023-03-19T05:27:34.776Z,99614.28
2023-03-19T05:30:10.941Z,99621.25
2023-03-19T05:33:00.244Z,99617.69
2023-03-19T05:35:39.343Z,99615.97
2023-03-19T05:38:14.582Z,99621.16
2023-03-19T05:40:46.969Z,99623.75
2023-03-19T05:43:27.444Z,99622.00
2023-03-19T05:45:56.493Z,99622.00
2023-03-19T05:48:29.467Z,99627.19
2023-03-19T05:50:59.371Z,99633.22
2023-03-19T05:53:33.304Z,99631.44
2023-03-19T05:56:21.846Z,99633.09
2023-03-19T05:59:11.578Z,99642.72
2023-03-19T06:01:44.963Z,99628.78
2023-03-19T06:04:13.457Z,99636.63
2023-03-19T06:06:42.325Z,99641.00
2023-03-19T06:09:10.920Z,99644.44
2023-03-19T06:11:45.109Z,99648.72
2023-03-19T06:14:44.394Z,99652.22
2023-03-19T06:17:36.037Z,99655.66
2023-03-19T06:20:08.840Z,99650.44
2023-03-19T06:22:37.633Z,99666.03
2023-03-19T06:25:08.374Z,99664.38
2023-03-19T06:27:39.103Z,99671.34
2023-03-19T06:30:22.303Z,99673.88
2023-03-19T06:32:51.969Z,99672.91
2023-03-19T06:35:21.214Z,99673.75
2023-03-19T06:37:52.386Z,99675.41
2023-03-19T06:40:21.092Z,99669.38
2023-03-19T06:42:49.753Z,99682.38
2023-03-19T06:45:19.496Z,99678.13
2023-03-19T06:47:53.393Z,99687.66
2023-03-19T06:50:22.454Z,99687.66
2023-03-19T06:52:51.145Z,99688.53
2023-03-19T06:55:20.554Z,99686.06
2023-03-19T06:57:51.621Z,99688.72
2023-03-19T07:00:21.307Z,99682.63
2023-03-19T07:02:51.697Z,99693.09
2023-03-19T07:05:19.984Z,99706.09
2023-03-19T07:07:48.314Z,99702.66
2023-03-19T07:10:19.304Z,99706.16
2023-03-19T07:12:47.778Z,99711.34
2023-03-19T07:15:17.636Z,99707.91
2023-03-19T07:17:47.687Z,99707.06
2023-03-19T07:20:18.252Z,99707.91
2023-03-19T07:22:46.782Z,99708.81
2023-03-19T07:25:15.164Z,99703.59
2023-03-19T07:27:43.605Z,99718.41
2023-03-19T07:30:13.704Z,99714.97
2023-03-19T07:32:42.920Z,99724.53
2023-03-19T07:35:12.245Z,99727.16
2023-03-19T07:37:42.953Z,99723.72
2023-03-19T07:40:12.969Z,99723.72
2023-03-19T07:42:42.829Z,99735.84
2023-03-19T07:45:13.327Z,99732.47
2023-03-19T07:47:41.886Z,99741.16
2023-03-19T07:50:11.745Z,99746.41
2023-03-19T07:52:41.758Z,99744.69
2023-03-19T07:55:11.287Z,99739.50
2023-03-19T07:57:40.637Z,99748.13
2023-03-19T08:00:11.085Z,99748.16
2023-03-19T08:02:42.843Z,99741.22
2023-03-19T08:05:12.442Z,99736.91
2023-03-19T08:07:42.352Z,99722.22
2023-03-19T08:10:13.301Z,99733.59
2023-03-19T08:12:42.155Z,99740.56
2023-03-19T08:15:13.093Z,99741.47
2023-03-19T08:17:41.917Z,99728.53
2023-03-19T08:20:13.821Z,99743.34
2023-03-19T08:22:44.332Z,99730.38
2023-03-19T08:25:13.592Z,99740.88
2023-03-19T08:27:42.263Z,99738.31
2023-03-19T08:30:13.095Z,99741.84
2023-03-19T08:32:42.107Z,99753.16
2023-03-19T08:35:11.900Z,99751.44
2023-03-19T08:37:40.260Z,99764.44
2023-03-19T08:40:12.811Z,99754.03
2023-03-19T08:42:45.109Z,99760.00
2023-03-19T08:45:16.704Z,99768.66
2023-03-19T08:47:45.523Z,99769.50
2023-03-19T08:50:14.549Z,99776.41
2023-03-19T08:52:43.782Z,99769.44
2023-03-19T08:55:13.607Z,99783.25
2023-03-19T08:57:41.998Z,99790.13
2023-03-19T09:00:12.656Z,99775.38
2023-03-19T09:02:42.669Z,99780.44
2023-03-19T09:05:11.249Z,99782.13
2023-03-19T09:07:39.625Z,99790.84
2023-03-19T09:10:09.428Z,99793.38
2023-03-19T09:12:39.215Z,99787.34
2023-03-19T09:15:10.320Z,99789.06
2023-03-19T09:17:38.665Z,99792.47
2023-03-19T09:20:08.710Z,99789.88
2023-03-19T09:22:37.173Z,99792.47
2023-03-19T09:25:07.396Z,99789.94
2023-03-19T09:27:36.109Z,99789.00
2023-03-19T09:30:09.816Z,99794.25
2023-03-19T09:32:39.121Z,99806.25
2023-03-19T09:35:09.479Z,99801.06
2023-03-19T09:37:37.883Z,99806.25
2023-03-19T09:40:08.487Z,99808.06
2023-03-19T09:42:56.014Z,99825.47
2023-03-19T09:45:26.327Z,99816.75
2023-03-19T09:48:04.180Z,99813.34
2023-03-19T09:50:34.736Z,99803.75
2023-03-19T09:53:09.882Z,99812.47
2023-03-19T09:55:44.762Z,99816.00
2023-03-19T09:58:17.264Z,99808.34
2023-03-19T10:00:51.791Z,99805.81
2023-03-19T10:03:43.703Z,99807.69
2023-03-19T10:06:29.365Z,99811.31
2023-03-19T10:09:16.516Z,99811.41
2023-03-19T10:11:59.539Z,99818.47
2023-03-19T10:15:25.661Z,99823.78
2023-03-19T10:18:05.436Z,99810.03
2023-03-19T10:20:49.185Z,99818.78
2023-03-19T10:23:38.818Z,99812.91
2023-03-19T10:26:14.304Z,99816.53
2023-03-19T10:28:47.385Z,99815.84
2023-03-19T10:31:28.938Z,99817.69
2023-03-19T10:34:19.468Z,99810.91
2023-03-19T10:36:48.724Z,99807.53
2023-03-19T10:39:19.306Z,99808.63
2023-03-19T10:41:58.723Z,99807.09
2023-03-19T10:44:33.811Z,99809.81
2023-03-19T10:47:13.043Z,99816.06
2023-03-19T10:49:46.227Z,99820.50
2023-03-19T10:52:26.416Z,99823.25
2023-03-19T10:55:02.762Z,99817.22
2023-03-19T10:57:32.121Z,99810.28
2023-03-19T11:00:09.059Z,99824.31
2023-03-19T11:02:37.744Z,99819.09
2023-03-19T11:05:26.280Z,99820.94
2023-03-19T11:07:59.583Z,99819.16
2023-03-19T11:10:30.917Z,99819.19
2023-03-19T11:13:01.745Z,99822.66
2023-03-19T11:15:37.102Z,99829.69
2023-03-19T11:18:18.050Z,99827.94
2023-03-19T11:20:54.854Z,99825.28
2023-03-19T11:23:23.776Z,99829.59
2023-03-19T11:25:55.299Z,99830.47
2023-03-19T11:28:26.902Z,99825.28
2023-03-19T11:31:05.176Z,99822.72
2023-03-19T11:33:50.582Z,99821.06
2023-03-19T11:36:27.666Z,99822.91
2023-03-19T11:39:11.068Z,99822.16
2023-03-19T11:42:12.045Z,99815.31
2023-03-19T11:44:54.689Z,99815.41
2023-03-19T11:47:32.768Z,99799.00
2023-03-19T11:50:20.374Z,99809.47
2023-03-19T11:53:04.556Z,99803.50
2023-03-19T11:55:39.339Z,99808.75
2023-03-19T11:58:45.678Z,99806.16
2023-03-19T12:01:31.601Z,99804.38
2023-03-19T12:04:28.314Z,99804.31
2023-03-19T12:07:10.637Z,99807.75
2023-03-19T12:09:49.716Z,99811.19
2023-03-19T12:12:27.126Z,99826.75
2023-03-19T12:15:09.697Z,99833.44
2023-03-19T12:17:55.049Z,99832.19
2023-03-19T12:20:56.589Z,99830.84
2023-03-19T12:23:41.292Z,99830.50
2023-03-19T12:26:19.126Z,99832.88
2023-03-19T12:28:55.623Z,99835.34
2023-03-19T12:31:52.148Z,99835.31
2023-03-19T12:34:32.913Z,99843.97
2023-03-19T12:37:16.704Z,99831.84
2023-03-19T12:39:58.983Z,99830.97
2023-03-19T12:42:35.015Z,99838.88
2023-03-19T12:45:09.724Z,99826.69
2023-03-19T12:47:41.621Z,99831.91
2023-03-19T12:50:14.792Z,99826.69
2023-03-19T12:52:46.710Z,99822.38
2023-03-19T12:55:21.224Z,99831.91
2023-03-19T12:57:55.819Z,99818.94
2023-03-19T13:00:33.344Z,99820.84
2023-03-19T13:03:08.832Z,99828.94
2023-03-19T13:05:43.475Z,99831.69
2023-03-19T13:08:20.062Z,99823.13
2023-03-19T13:10:48.612Z,99820.44
2023-03-19T13:13:39.930Z,99830.09
2023-03-19T13:16:19.795Z,99826.69
2023-03-19T13:18:59.159Z,99826.78
2023-03-19T13:21:32.553Z,99832.19
2023-03-19T13:24:10.193Z,99833.97
2023-03-19T13:26:40.214Z,99824.50
2023-03-19T13:29:20.228Z,99829.81
2023-03-19T13:31:50.435Z,99830.72
2023-03-19T13:34:25.302Z,99834.25
2023-03-19T13:37:01.854Z,99834.25
2023-03-19T13:39:33.169Z,99838.53
2023-03-19T13:42:37.480Z,99835.09
2023-03-19T13:45:31.177Z,99834.19
2023-03-19T13:48:25.012Z,99822.06
2023-03-19T13:51:01.327Z,99829.94
2023-03-19T13:53:39.874Z,99832.53
2023-03-19T13:56:26.516Z,99828.94
2023-03-19T13:59:27.748Z,99828.03
2023-03-19T14:01:58.887Z,99826.22
2023-03-19T14:04:30.820Z,99837.50
2023-03-19T14:07:11.198Z,99838.44
2023-03-19T14:09:43.449Z,99834.13
2023-03-19T14:12:23.049Z,99831.53
2023-03-19T14:14:56.251Z,99836.75
2023-03-19T14:17:31.917Z,99832.53
2023-03-19T14:20:37.107Z,99830.06
2023-03-19T14:23:23.762Z,99830.19
2023-03-19T14:26:17.730Z,99832.00
2023-03-19T14:29:00.775Z,99828.59
2023-03-19T14:31:38.231Z,99831.31
2023-03-19T14:34:23.797Z,99826.16
2023-03-19T14:36:59.993Z,99826.16
2023-03-19T14:39:31.531Z,99834.91
2023-03-19T14:42:07.854Z,99830.59
2023-03-19T14:45:19.042Z,99831.50
2023-03-19T14:48:24.369Z,99831.50
2023-03-19T14:51:22.328Z,99834.09
2023-03-19T14:53:55.054Z,99837.63
2023-03-19T14:56:27.804Z,99829.88
2023-03-19T14:58:58.426Z,99836.81
2023-03-19T15:01:28.669Z,99834.28
2023-03-19T15:04:03.594Z,99828.19
2023-03-19T15:06:37.921Z,99833.50
2023-03-19T15:09:09.229Z,99829.16
2023-03-19T15:12:00.313Z,99828.34
2023-03-19T15:15:04.450Z,99830.06
2023-03-19T15:17:35.252Z,99836.16
2023-03-19T15:20:18.841Z,99842.19
2023-03-19T15:22:55.736Z,99836.16
2023-03-19T15:25:24.976Z,99844.88
2023-03-19T15:28:09.334Z,99841.44
2023-03-19T15:30:52.438Z,99837.88
2023-03-19T15:33:38.781Z,99845.63
2023-03-19T15:36:14.058Z,99850.78
2023-03-19T15:38:48.384Z,99849.91
2023-03-19T15:41:19.034Z,99849.91
2023-03-19T15:43:48.084Z,99850.84
2023-03-19T15:46:20.666Z,99854.34
2023-03-19T15:48:52.402Z,99844.78
2023-03-19T15:51:23.925Z,99843.16
2023-03-19T15:53:55.233Z,99842.38
2023-03-19T15:56:25.888Z,99842.38
2023-03-19T15:58:58.224Z,99850.25
2023-03-19T16:01:29.016Z,99851.13
2023-03-19T16:04:01.790Z,99854.69
2023-03-19T16:06:33.864Z,99852.97
2023-03-19T16:09:24.189Z,99848.66
2023-03-19T16:11:53.640Z,99860.84
2023-03-19T16:14:28.347Z,99860.84
2023-03-19T16:17:03.037Z,99864.28
2023-03-19T16:19:36.011Z,99872.09
2023-03-19T16:22:13.429Z,99871.25
2023-03-19T16:24:46.128Z,99878.19
2023-03-19T16:27:16.842Z,99875.53
2023-03-19T16:29:47.984Z,99881.63
2023-03-19T16:32:22.244Z,99888.56
2023-03-19T16:34:54.372Z,99895.50
2023-03-19T16:37:45.535Z,99887.66
2023-03-19T16:40:44.056Z,99893.72
2023-03-19T16:43:19.672Z,99891.94
2023-03-19T16:45:52.880Z,99898.91
2023-03-19T16:48:21.406Z,99900.59
2023-03-19T16:50:50.134Z,99893.66
2023-03-19T16:53:24.742Z,99891.94
2023-03-19T16:55:57.475Z,99892.81
2023-03-19T16:58:31.373Z,99899.75
2023-03-19T17:01:00.584Z,99894.50
2023-03-19T17:03:30.431Z,99900.59
2023-03-19T17:05:59.602Z,99905.78
2023-03-19T17:08:28.080Z,99904.88
2023-03-19T17:10:59.156Z,99915.31
2023-03-19T17:13:30.807Z,99916.16
2023-03-19T17:16:02.526Z,99918.69
2023-03-19T17:18:35.432Z,99924.78
2023-03-19T17:21:08.192Z,99929.06
2023-03-19T17:23:38.069Z,99937.75
2023-03-19T17:26:17.147Z,99937.69
2023-03-19T17:28:46.218Z,99942.00
2023-03-19T17:31:25.709Z,99946.28
2023-03-19T17:33:58.622Z,99944.50
2023-03-19T17:36:27.356Z,99943.59
2023-03-19T17:38:55.989Z,99947.03
2023-03-19T17:41:26.088Z,99944.38
2023-03-19T17:43:54.421Z,99954.81
2023-03-19T17:46:26.267Z,99959.13
2023-03-19T17:48:56.284Z,99974.72
2023-03-19T17:51:25.818Z,99973.78
2023-03-19T17:53:56.833Z,99964.25
2023-03-19T17:56:27.661Z,99974.63
2023-03-19T17:58:56.499Z,99975.44
2023-03-19T18:01:28.441Z,99983.25
2023-03-19T18:03:59.242Z,99976.25
2023-03-19T18:06:34.798Z,99986.69
2023-03-19T18:09:04.041Z,99988.28
2023-03-19T18:11:33.935Z,99990.00
2023-03-19T18:14:02.403Z,99992.56
2023-03-19T18:16:33.689Z,99992.56
2023-03-19T18:19:05.114Z,99991.69
2023-03-19T18:21:36.184Z,99995.13
2023-03-19T18:24:05.228Z,99994.25
2023-03-19T18:26:35.027Z,99998.56
2023-03-19T18:29:04.271Z,100014.19
2023-03-19T18:31:32.682Z,100005.44
2023-03-19T18:34:04.334Z,100009.81
2023-03-19T18:36:34.898Z,100010.63
2023-03-19T18:39:03.752Z,100010.56
2023-03-19T18:41:32.624Z,100020.13
2023-03-19T18:44:09.423Z,100020.13
2023-03-19T18:46:39.939Z,100022.69
2023-03-19T18:49:21.679Z,100032.28
2023-03-19T18:52:01.440Z,100032.22
2023-03-19T18:54:31.593Z,100033.03
2023-03-19T18:57:01.480Z,100038.25
2023-03-19T18:59:33.837Z,100040.84
2023-03-19T19:02:09.897Z,100046.03
2023-03-19T19:04:38.395Z,100047.69
2023-03-19T19:07:07.365Z,100046.81
2023-03-19T19:09:36.151Z,100052.84
2023-03-19T19:12:06.251Z,100054.63
2023-03-19T19:14:36.722Z,100052.91
2023-03-19T19:17:05.382Z,100055.44
2023-03-19T19:19:34.070Z,100055.44
2023-03-19T19:22:02.800Z,100058.88
2023-03-19T19:24:31.393Z,100064.97
2023-03-19T19:27:01.506Z,100059.75
2023-03-19T19:29:31.243Z,100064.97
2023-03-19T19:32:04.336Z,100071.03
2023-03-19T19:34:32.814Z,100070.16
2023-03-19T19:37:01.342Z,100083.16
2023-03-19T19:39:29.678Z,100077.00
2023-03-19T19:41:58.475Z,100086.59
2023-03-19T19:44:26.973Z,100086.59
2023-03-19T19:46:55.883Z,100094.41
2023-03-19T19:49:27.166Z,100091.81
2023-03-19T19:51:56.172Z,100097.00
2023-03-19T19:54:25.771Z,100095.31
2023-03-19T19:56:55.301Z,100103.06
2023-03-19T19:59:26.547Z,100108.31
2023-03-19T20:01:55.017Z,100113.53
2023-03-19T20:04:24.873Z,100107.31
2023-03-19T20:06:53.149Z,100118.63
2023-03-19T20:09:22.189Z,100108.88
2023-03-19T20:11:50.805Z,100113.88
2023-03-19T20:14:19.953Z,100120.66
2023-03-19T20:16:48.814Z,100113.53
2023-03-19T20:19:20.165Z,100127.28
2023-03-19T20:21:51.065Z,100128.81
2023-03-19T20:24:19.840Z,100135.56
2023-03-19T20:26:48.284Z,100135.31
2023-03-19T20:29:17.288Z,100146.28
2023-03-19T20:31:48.293Z,100146.78
2023-03-19T20:34:32.506Z,100155.06
2023-03-19T20:37:07.301Z,100155.56
2023-03-19T20:39:35.863Z,100156.22
2023-03-19T20:42:04.503Z,100163.97
2023-03-19T20:44:32.860Z,100153.41
2023-03-19T20:47:01.310Z,100159.34
2023-03-19T20:49:30.897Z,100162.78
2023-03-19T20:51:59.262Z,100173.06
2023-03-19T20:54:29.058Z,100171.28
2023-03-19T20:56:58.303Z,100173.97
2023-03-19T20:59:28.808Z,100188.66
2023-03-19T21:01:57.464Z,100181.75
2023-03-19T21:04:26.135Z,100180.81
2023-03-19T21:06:54.621Z,100183.34
2023-03-19T21:09:24.769Z,100178.91
2023-03-19T21:11:54.493Z,100184.06
2023-03-19T21:14:26.905Z,100183.06
2023-03-19T21:16:55.502Z,100188.25
2023-03-19T21:19:24.194Z,100196.13
2023-03-19T21:21:52.815Z,100195.41
2023-03-19T21:24:22.257Z,100198.03
2023-03-19T21:26:50.655Z,100198.09
2023-03-19T21:29:29.349Z,100203.38
2023-03-19T21:31:58.126Z,100210.16
2023-03-19T21:34:28.303Z,100202.13
2023-03-19T21:36:56.683Z,100209.84
2023-03-19T21:39:25.035Z,100201.91
2023-03-19T21:41:53.418Z,100207.16
2023-03-19T21:44:24.846Z,100202.09
2023-03-19T21:46:53.388Z,100202.97
2023-03-19T21:49:21.954Z,100196.22
2023-03-19T21:51:50.416Z,100200.72
2023-03-19T21:54:18.897Z,100212.97
2023-03-19T21:56:47.617Z,100206.03
2023-03-19T21:59:19.520Z,100205.09
2023-03-19T22:01:50.010Z,100200.63
2023-03-19T22:04:19.261Z,100208.41
2023-03-19T22:06:49.217Z,100204.91
2023-03-19T22:09:17.884Z,100210.13
2023-03-19T22:11:46.355Z,100214.41
2023-03-19T22:14:19.419Z,100217.84
2023-03-19T22:16:54.741Z,100214.31
2023-03-19T22:19:23.858Z,100212.50
2023-03-19T22:21:52.344Z,100215.78
2023-03-19T22:24:20.927Z,100215.69
2023-03-19T22:26:52.329Z,100219.09
2023-03-19T22:29:25.274Z,100220.69
2023-03-19T22:31:56.935Z,100227.53
2023-03-19T22:34:28.667Z,100217.88
2023-03-19T22:36:57.256Z,100225.69
2023-03-19T22:39:26.029Z,100226.56
2023-03-19T22:41:54.488Z,100222.16
2023-03-19T22:44:28.250Z,100230.78
2023-03-19T22:47:00.641Z,100233.22
2023-03-19T22:49:30.179Z,100231.41
2023-03-19T22:51:59.240Z,100228.63
2023-03-19T22:54:28.351Z,100228.50
2023-03-19T22:56:56.629Z,100232.69
2023-03-19T22:59:25.421Z,100236.03
2023-03-19T23:01:53.973Z,100240.31
2023-03-19T23:04:25.963Z,100236.81
2023-03-19T23:06:57.305Z,100230.66
2023-03-19T23:09:29.409Z,100236.63
2023-03-19T23:11:59.280Z,100234.84
2023-03-19T23:14:30.990Z,100238.25
2023-03-19T23:17:03.203Z,100241.69
2023-03-19T23:19:35.162Z,100243.31
2023-03-19T23:22:06.333Z,100245.97
2023-03-19T23:24:36.139Z,100245.88
2023-03-19T23:27:04.746Z,100249.22
2023-03-19T23:29:37.819Z,100250.91
2023-03-19T23:32:08.115Z,100253.41
2023-03-19T23:34:53.989Z,100256.75
2023-03-19T23:37:26.008Z,100259.16
2023-03-19T23:39:54.665Z,100262.50
2023-03-19T23:42:29.700Z,100265.09
2023-03-19T23:45:01.264Z,100263.38
2023-03-19T23:47:31.341Z,100277.34
2023-03-19T23:50:01.217Z,100280.81
2023-03-19T23:52:29.716Z,100275.53
2023-03-19T23:54:58.056Z,100279.81
2023-03-19T23:57:28.023Z,100277.06
2023-03-19T23:59:56.920Z,100275.22
